Time;durP1;ratioP1;P1;durP2;ratioP2;P2;SDS_P1;SDS_P2;PMS_P1;PMS_P2;Temp;Humidity;BMP_temperature;BMP_pressure;BME280_temperature;BME280_humidity;BME280_pressure;Samples;Min_cycle;Max_cycle;Signal;HPM_P1;HPM_P2
2023/04/21 00:02:24;;;;;;;9.23;6.70;;;;;;;;;;5070455;28;20131;-86
2023/04/21 00:04:50;;;;;;;10.95;7.13;;;;;;;;;;5071472;28;20090;-84
2023/04/21 00:07:16;;;;;;;11.80;7.35;;;;;;;;;;5070496;28;20040;-85
2023/04/21 00:09:41;;;;;;;9.32;7.10;;;;;;;;;;5071355;28;20048;-85
2023/04/21 00:12:07;;;;;;;9.55;6.90;;;;;;;;;;5068147;28;20032;-85
2023/04/21 00:14:33;;;;;;;10.43;7.10;;;;;;;;;;5053023;28;20033;-85
2023/04/21 00:16:59;;;;;;;9.48;7.00;;;;;;;;;;5068139;28;20095;-85
2023/04/21 00:19:25;;;;;;;9.02;6.47;;;;;;;;;;5084552;28;20036;-84
2023/04/21 00:21:50;;;;;;;10.00;6.88;;;;;;;;;;5076163;28;20512;-86
2023/04/21 00:24:16;;;;;;;8.95;6.57;;;;;;;;;;5073007;28;20119;-85
2023/04/21 00:26:41;;;;;;;8.88;6.18;;;;;;;;;;5077677;28;20024;-84
2023/04/21 00:29:07;;;;;;;9.23;6.93;;;;;;;;;;5077495;28;20044;-84
2023/04/21 00:31:33;;;;;;;10.25;6.65;;;;;;;;;;5060232;28;20036;-86
2023/04/21 00:33:58;;;;;;;10.27;7.30;;;;;;;;;;5078061;28;20036;-86
2023/04/21 00:36:26;;;;;;;11.15;7.68;;;;;;;;;;5076955;28;20032;-85
2023/04/21 00:38:52;;;;;;;9.85;6.72;;;;;;;;;;5078077;28;20032;-83
2023/04/21 00:41:18;;;;;;;12.07;7.65;;;;;;;;;;5078247;28;20039;-85
2023/04/21 00:44:04;;;;;;;9.15;6.50;;;;;;;;;;5076540;28;20043;-84
2023/04/21 00:46:31;;;;;;;9.77;6.85;;;;;;;;;;5076802;28;20039;-83
2023/04/21 00:48:58;;;;;;;9.95;7.40;;;;;;;;;;5077662;28;20016;-87
2023/04/21 00:51:27;;;;;;;9.60;6.72;;;;;;;;;;5077733;28;20036;-85
2023/04/21 00:53:54;;;;;;;9.52;7.03;;;;;;;;;;5077706;28;20039;-87
2023/04/21 00:56:21;;;;;;;8.82;6.55;;;;;;;;;;5076145;28;20037;-85
2023/04/21 00:58:47;;;;;;;10.07;6.38;;;;;;;;;;5061812;28;20040;-84
2023/04/21 01:01:13;;;;;;;7.80;5.75;;;;;;;;;;5078571;28;20497;-83
2023/04/21 01:03:41;;;;;;;8.70;5.80;;;;;;;;;;5082808;28;20120;-85
2023/04/21 01:06:09;;;;;;;8.85;5.93;;;;;;;;;;5071038;28;20028;-85
2023/04/21 01:08:35;;;;;;;10.73;7.20;;;;;;;;;;5071707;28;20033;-85
2023/04/21 01:11:09;;;;;;;11.95;7.50;;;;;;;;;;5074550;28;20088;-83
2023/04/21 01:13:35;;;;;;;;;;;;;;;;;;5074834;28;20043;-83
2023/04/21 01:16:00;;;;;;;9.60;6.18;;;;;;;;;;5072988;28;19916;-86
2023/04/21 01:18:26;;;;;;;10.00;6.57;;;;;;;;;;5056070;28;20036;-87
2023/04/21 01:20:52;;;;;;;8.95;6.55;;;;;;;;;;5046919;28;20040;-84
2023/04/21 01:23:17;;;;;;;8.45;6.15;;;;;;;;;;5074041;28;20029;-86
2023/04/21 01:25:43;;;;;;;7.97;6.10;;;;;;;;;;5073986;28;20032;-86
2023/04/21 01:28:08;;;;;;;9.90;7.05;;;;;;;;;;5072433;28;20025;-85
2023/04/21 01:30:34;;;;;;;10.80;6.65;;;;;;;;;;5072409;28;20036;-85
2023/04/21 01:32:59;;;;;;;10.38;7.15;;;;;;;;;;5087086;28;20068;-86
2023/04/21 01:35:25;;;;;;;10.70;7.35;;;;;;;;;;5076414;28;20043;-86
2023/04/21 01:37:50;;;;;;;10.52;7.65;;;;;;;;;;5092716;28;20471;-86
2023/04/21 01:40:18;;;;;;;10.38;7.32;;;;;;;;;;5075170;28;20082;-83
2023/04/21 01:42:44;;;;;;;12.18;7.75;;;;;;;;;;5073342;28;20418;-85
2023/04/21 01:45:11;;;;;;;12.60;8.40;;;;;;;;;;5074010;28;20036;-86
2023/04/21 01:47:36;;;;;;;11.48;7.32;;;;;;;;;;5074938;28;20104;-84
2023/04/21 01:50:02;;;;;;;12.73;7.43;;;;;;;;;;5059082;28;20063;-86
2023/04/21 01:52:28;;;;;;;11.10;7.35;;;;;;;;;;5077335;28;20093;-84
2023/04/21 01:54:54;;;;;;;9.88;7.32;;;;;;;;;;5059855;28;20127;-85
2023/04/21 01:57:19;;;;;;;11.30;7.55;;;;;;;;;;5076663;28;20036;-85
2023/04/21 01:59:45;;;;;;;10.05;7.38;;;;;;;;;;5075597;28;20043;-84
2023/04/21 02:02:11;;;;;;;10.38;6.95;;;;;;;;;;5081684;28;20032;-84
2023/04/21 02:04:36;;;;;;;10.98;7.65;;;;;;;;;;5055763;28;20056;-85
2023/04/21 02:07:02;;;;;;;12.15;8.30;;;;;;;;;;5071012;28;20037;-85
2023/04/21 02:09:28;;;;;;;12.07;7.75;;;;;;;;;;5072686;28;20082;-86
2023/04/21 02:11:57;;;;;;;11.98;7.88;;;;;;;;;;5070878;28;20090;-84
2023/04/21 02:14:23;;;;;;;13.38;8.02;;;;;;;;;;5068404;28;20064;-84
2023/04/21 02:16:49;;;;;;;11.98;7.70;;;;;;;;;;5071139;28;20051;-82
2023/04/21 02:19:14;;;;;;;8.23;5.50;;;;;;;;;;5072048;28;20390;-84
2023/04/21 02:21:40;;;;;;;7.60;5.57;;;;;;;;;;5072145;28;20401;-85
2023/04/21 02:24:06;;;;;;;7.57;5.05;;;;;;;;;;5072231;28;20028;-83
2023/04/21 02:26:32;;;;;;;6.85;4.90;;;;;;;;;;5073394;28;20376;-84
2023/04/21 02:28:59;;;;;;;6.28;4.70;;;;;;;;;;5071666;28;20028;-86
2023/04/21 02:31:24;;;;;;;7.20;5.20;;;;;;;;;;5071984;28;20112;-83
2023/04/21 02:33:50;;;;;;;7.72;5.57;;;;;;;;;;5055186;28;20040;-83
2023/04/21 02:36:16;;;;;;;6.90;4.95;;;;;;;;;;5072833;28;20038;-82
2023/04/21 02:38:41;;;;;;;8.32;5.47;;;;;;;;;;5069789;28;20466;-85
2023/04/21 02:41:09;;;;;;;6.55;5.05;;;;;;;;;;5038337;28;20390;-84
2023/04/21 02:43:34;;;;;;;8.70;5.60;;;;;;;;;;5072085;28;20029;-83
2023/04/21 02:46:05;;;;;;;8.82;5.72;;;;;;;;;;5067503;28;20028;-82
2023/04/21 02:48:33;;;;;;;9.85;6.55;;;;;;;;;;5071784;28;20547;-84
2023/04/21 02:50:58;;;;;;;10.07;6.93;;;;;;;;;;5072705;28;20066;-85
2023/04/21 02:53:24;;;;;;;11.38;6.28;;;;;;;;;;5074480;28;20028;-84
2023/04/21 02:55:51;;;;;;;10.02;6.60;;;;;;;;;;5073616;28;20086;-86
2023/04/21 02:58:17;;;;;;;8.88;6.53;;;;;;;;;;5075258;28;20428;-84
2023/04/21 03:00:42;;;;;;;8.65;6.40;;;;;;;;;;5050931;28;20025;-85
2023/04/21 03:03:08;;;;;;;9.18;6.30;;;;;;;;;;5076684;28;20040;-86
2023/04/21 03:05:34;;;;;;;10.48;7.05;;;;;;;;;;5093034;28;20025;-83
2023/04/21 03:07:59;;;;;;;9.90;6.93;;;;;;;;;;5072732;28;20120;-86
2023/04/21 03:10:25;;;;;;;9.68;6.97;;;;;;;;;;5073266;28;20106;-83
2023/04/21 03:12:55;;;;;;;10.90;6.80;;;;;;;;;;5070086;28;20393;-86
2023/04/21 03:15:21;;;;;;;10.77;7.78;;;;;;;;;;5071890;28;20040;-85
2023/04/21 03:17:47;;;;;;;9.98;6.90;;;;;;;;;;5073145;28;20031;-86
2023/04/21 03:20:12;;;;;;;10.10;7.03;;;;;;;;;;5072129;28;20727;-84
2023/04/21 03:22:38;;;;;;;8.98;6.38;;;;;;;;;;5071328;28;20390;-84
2023/04/21 03:25:06;;;;;;;10.63;6.75;;;;;;;;;;5071263;28;20029;-84
2023/04/21 03:27:32;;;;;;;10.07;6.30;;;;;;;;;;5071835;28;20509;-84
2023/04/21 03:29:58;;;;;;;11.43;7.25;;;;;;;;;;5052164;28;20051;-84
2023/04/21 03:32:23;;;;;;;10.70;7.22;;;;;;;;;;5071461;28;20063;-83
2023/04/21 03:34:49;;;;;;;14.43;8.70;;;;;;;;;;5054968;28;20460;-85
2023/04/21 03:37:16;;;;;;;13.45;8.75;;;;;;;;;;5070368;28;20040;-84
2023/04/21 03:39:42;;;;;;;15.05;8.85;;;;;;;;;;5087646;28;20032;-84
2023/04/21 03:42:08;;;;;;;13.60;8.90;;;;;;;;;;5068652;28;20036;-83
2023/04/21 03:44:34;;;;;;;13.68;8.73;;;;;;;;;;5068496;28;20051;-84
2023/04/21 03:47:02;;;;;;;14.60;8.32;;;;;;;;;;5072197;28;20478;-84
2023/04/21 03:49:28;;;;;;;12.55;7.90;;;;;;;;;;5070705;28;20020;-83
2023/04/21 03:51:53;;;;;;;13.25;7.93;;;;;;;;;;5071846;28;20029;-84
2023/04/21 03:54:19;;;;;;;11.95;8.18;;;;;;;;;;5073901;28;20107;-83
2023/04/21 03:56:44;;;;;;;11.57;8.27;;;;;;;;;;5074472;28;20358;-85
2023/04/21 03:59:10;;;;;;;12.45;8.15;;;;;;;;;;5062086;28;20086;-86
2023/04/21 04:01:35;;;;;;;15.18;9.57;;;;;;;;;;5083358;28;20095;-86
2023/04/21 04:04:01;;;;;;;13.23;8.50;;;;;;;;;;5080277;28;20037;-88
2023/04/21 04:06:27;;;;;;;12.48;7.88;;;;;;;;;;5084775;28;20020;-83
2023/04/21 04:08:53;;;;;;;10.25;7.07;;;;;;;;;;5073413;28;20119;-83
2023/04/21 04:11:18;;;;;;;14.82;8.85;;;;;;;;;;5076472;28;20135;-84
2023/04/21 04:13:43;;;;;;;12.93;8.45;;;;;;;;;;5075979;28;20036;-83
2023/04/21 04:16:09;;;;;;;12.05;8.23;;;;;;;;;;5076290;28;20028;-85
2023/04/21 04:18:34;;;;;;;12.73;8.90;;;;;;;;;;5076270;28;20036;-84
2023/04/21 04:21:06;;;;;;;17.58;10.70;;;;;;;;;;5075955;28;20121;-85
2023/04/21 04:23:32;;;;;;;14.48;9.75;;;;;;;;;;5073729;28;20024;-87
2023/04/21 04:25:58;;;;;;;13.48;8.68;;;;;;;;;;5075610;28;20036;-84
2023/04/21 04:28:23;;;;;;;13.50;9.13;;;;;;;;;;5075562;28;20028;-84
2023/04/21 04:30:49;;;;;;;14.32;9.18;;;;;;;;;;5074396;28;20029;-83
2023/04/21 04:33:15;;;;;;;36.63;15.63;;;;;;;;;;5075293;28;20032;-84
2023/04/21 04:35:40;;;;;;;14.80;9.32;;;;;;;;;;5075236;28;20036;-85
2023/04/21 04:38:06;;;;;;;15.75;9.13;;;;;;;;;;5072487;28;20032;-83
2023/04/21 04:40:32;;;;;;;16.38;10.05;;;;;;;;;;5075259;28;20079;-85
2023/04/21 04:42:58;;;;;;;15.15;8.75;;;;;;;;;;5071573;28;20041;-85
2023/04/21 04:45:25;;;;;;;12.50;8.52;;;;;;;;;;5071546;28;20042;-84
2023/04/21 04:47:51;;;;;;;12.93;8.32;;;;;;;;;;5073273;28;20098;-86
2023/04/21 04:50:16;;;;;;;13.45;8.93;;;;;;;;;;5073692;28;20040;-84
2023/04/21 04:52:45;;;;;;;14.82;9.23;;;;;;;;;;5075638;28;20036;-84
2023/04/21 04:55:11;;;;;;;17.08;9.65;;;;;;;;;;5077069;28;20044;-86
2023/04/21 04:57:36;;;;;;;20.10;11.82;;;;;;;;;;5077218;28;20036;-85
2023/04/21 05:00:05;;;;;;;21.48;11.15;;;;;;;;;;5078774;28;20126;-83
2023/04/21 05:02:31;;;;;;;17.88;9.40;;;;;;;;;;5079357;28;20028;-84
2023/04/21 05:04:56;;;;;;;12.07;8.25;;;;;;;;;;5079416;28;20032;-84
2023/04/21 05:07:22;;;;;;;13.65;8.50;;;;;;;;;;5080180;28;20080;-85
2023/04/21 05:09:47;;;;;;;12.73;8.68;;;;;;;;;;5083082;28;20040;-85
2023/04/21 05:12:13;;;;;;;13.80;8.98;;;;;;;;;;5052600;28;20041;-80
2023/04/21 05:14:38;;;;;;;13.60;8.57;;;;;;;;;;5078383;28;20063;-84
2023/04/21 05:17:04;;;;;;;14.40;9.80;;;;;;;;;;5075141;28;20112;-86
2023/04/21 05:19:29;;;;;;;14.77;8.73;;;;;;;;;;5073766;28;20039;-85
2023/04/21 05:22:00;;;;;;;12.93;8.57;;;;;;;;;;5067973;28;20120;-85
2023/04/21 05:24:25;;;;;;;12.85;8.57;;;;;;;;;;5072970;28;20452;-84
2023/04/21 05:26:50;;;;;;;13.60;8.65;;;;;;;;;;5075567;28;20036;-86
2023/04/21 05:29:16;;;;;;;12.60;8.57;;;;;;;;;;5075536;28;20037;-84
2023/04/21 05:31:41;;;;;;;14.98;9.48;;;;;;;;;;5052067;28;20036;-85
2023/04/21 05:34:07;;;;;;;17.15;9.93;;;;;;;;;;5076139;28;20036;-86
2023/04/21 05:36:32;;;;;;;14.38;9.48;;;;;;;;;;5057572;28;20094;-85
2023/04/21 05:38:58;;;;;;;16.23;10.68;;;;;;;;;;5073329;28;20043;-85
2023/04/21 05:41:23;;;;;;;23.33;12.25;;;;;;;;;;5075075;28;20047;-84
2023/04/21 05:43:50;;;;;;;18.30;10.02;;;;;;;;;;5074328;28;20028;-85
2023/04/21 05:46:16;;;;;;;15.82;9.75;;;;;;;;;;5075898;28;20071;-84
2023/04/21 05:48:41;;;;;;;17.88;10.60;;;;;;;;;;5076147;28;20041;-83
2023/04/21 05:51:12;;;;;;;16.65;10.18;;;;;;;;;;5075553;28;20032;-85
2023/04/21 05:53:38;;;;;;;22.90;13.70;;;;;;;;;;5072506;28;20462;-84
2023/04/21 05:56:05;;;;;;;17.40;10.65;;;;;;;;;;5074636;28;20097;-85
2023/04/21 05:58:30;;;;;;;14.82;9.77;;;;;;;;;;5075776;28;20044;-86
2023/04/21 06:00:56;;;;;;;16.25;10.55;;;;;;;;;;5076123;28;20033;-84
2023/04/21 06:03:21;;;;;;;17.25;10.90;;;;;;;;;;5074485;28;20039;-84
2023/04/21 06:05:47;;;;;;;19.75;12.02;;;;;;;;;;5075330;28;20037;-84
2023/04/21 06:08:12;;;;;;;26.15;14.80;;;;;;;;;;5074144;28;20036;-83
2023/04/21 06:10:38;;;;;;;23.33;12.88;;;;;;;;;;5073133;28;20457;-84
2023/04/21 06:13:03;;;;;;;21.05;12.35;;;;;;;;;;5077007;28;20035;-84
2023/04/21 06:15:29;;;;;;;17.92;10.82;;;;;;;;;;5072066;28;20379;-84
2023/04/21 06:17:54;;;;;;;17.15;11.38;;;;;;;;;;5068441;28;20074;-82
2023/04/21 06:20:20;;;;;;;21.90;12.30;;;;;;;;;;5068433;28;20403;-83
2023/04/21 06:22:45;;;;;;;18.48;11.13;;;;;;;;;;5072020;28;20029;-84
2023/04/21 06:25:14;;;;;;;17.60;10.90;;;;;;;;;;5073112;28;20504;-82
2023/04/21 06:27:40;;;;;;;18.25;12.25;;;;;;;;;;5075246;28;20045;-81
2023/04/21 06:30:06;;;;;;;17.50;11.48;;;;;;;;;;5073816;28;20086;-85
2023/04/21 06:32:31;;;;;;;16.30;11.05;;;;;;;;;;5070797;28;20063;-86
2023/04/21 06:34:57;;;;;;;16.13;9.73;;;;;;;;;;5071766;28;20055;-82
2023/04/21 06:37:22;;;;;;;17.33;11.57;;;;;;;;;;5054813;28;20039;-85
2023/04/21 06:39:48;;;;;;;17.38;11.73;;;;;;;;;;5075822;28;20478;-83
2023/04/21 06:42:13;;;;;;;16.63;10.75;;;;;;;;;;5071193;28;20444;-85
2023/04/21 06:44:41;;;;;;;16.88;10.65;;;;;;;;;;5068342;28;20152;-85
2023/04/21 06:47:07;;;;;;;14.95;10.73;;;;;;;;;;5075696;28;20765;-86
2023/04/21 06:49:33;;;;;;;19.08;11.65;;;;;;;;;;5071286;28;20036;-85
2023/04/21 06:51:58;;;;;;;17.63;11.30;;;;;;;;;;5070489;28;20064;-83
2023/04/21 06:54:24;;;;;;;18.45;11.57;;;;;;;;;;5076322;28;20043;-86
2023/04/21 06:56:50;;;;;;;22.38;12.60;;;;;;;;;;5072737;28;20047;-86
2023/04/21 06:59:15;;;;;;;22.20;13.30;;;;;;;;;;5074334;28;20036;-85
2023/04/21 07:01:41;;;;;;;21.88;14.07;;;;;;;;;;5075321;28;20040;-85
2023/04/21 07:04:06;;;;;;;23.02;14.52;;;;;;;;;;5052442;28;20033;-86
2023/04/21 07:06:32;;;;;;;21.00;12.88;;;;;;;;;;5090571;28;20051;-86
2023/04/21 07:08:57;;;;;;;20.90;13.52;;;;;;;;;;5076713;28;20041;-85
2023/04/21 07:11:23;;;;;;;19.15;12.32;;;;;;;;;;5078500;28;20028;-88
2023/04/21 07:13:48;;;;;;;20.30;12.35;;;;;;;;;;5079210;28;20040;-86
2023/04/21 07:16:14;;;;;;;24.67;12.88;;;;;;;;;;5091946;28;20127;-87
2023/04/21 07:18:40;;;;;;;20.75;12.80;;;;;;;;;;5074939;28;20047;-85
2023/04/21 07:21:06;;;;;;;15.60;10.55;;;;;;;;;;5069690;28;20033;-85
2023/04/21 07:23:32;;;;;;;15.57;9.63;;;;;;;;;;5055721;28;20040;-85
2023/04/21 07:25:58;;;;;;;15.88;9.80;;;;;;;;;;5071960;28;20127;-85
2023/04/21 07:28:23;;;;;;;14.43;9.82;;;;;;;;;;5072801;28;20055;-85
2023/04/21 07:30:49;;;;;;;14.02;9.77;;;;;;;;;;5054824;28;20033;-83
2023/04/21 07:33:15;;;;;;;16.20;9.95;;;;;;;;;;5071555;28;20043;-86
2023/04/21 07:35:40;;;;;;;15.68;9.23;;;;;;;;;;5071742;28;20032;-84
2023/04/21 07:38:06;;;;;;;15.82;9.07;;;;;;;;;;5070019;28;20086;-85
2023/04/21 07:40:31;;;;;;;12.35;8.32;;;;;;;;;;5068338;28;20458;-84
2023/04/21 07:42:57;;;;;;;11.00;7.85;;;;;;;;;;5073739;28;20412;-86
2023/04/21 07:45:23;;;;;;;12.10;8.13;;;;;;;;;;5055231;28;20059;-88
2023/04/21 07:47:49;;;;;;;13.05;8.30;;;;;;;;;;5046072;28;20032;-88
2023/04/21 07:50:15;;;;;;;13.38;8.75;;;;;;;;;;5085348;28;20075;-89
2023/04/21 07:52:40;;;;;;;17.05;9.35;;;;;;;;;;5068668;28;20044;-88
2023/04/21 07:55:06;;;;;;;13.60;9.05;;;;;;;;;;5071637;28;20096;-86
2023/04/21 07:57:33;;;;;;;13.25;8.93;;;;;;;;;;5071741;28;20060;-86
2023/04/21 07:59:59;;;;;;;12.82;8.52;;;;;;;;;;5069336;28;20072;-87
2023/04/21 08:02:24;;;;;;;11.20;8.00;;;;;;;;;;5071467;28;20036;-84
2023/04/21 08:04:50;;;;;;;12.65;8.57;;;;;;;;;;5070197;28;20112;-85
2023/04/21 08:07:19;;;;;;;12.20;8.52;;;;;;;;;;5072345;28;20537;-86
2023/04/21 08:09:44;;;;;;;15.10;8.90;;;;;;;;;;5053810;28;20559;-84
2023/04/21 08:12:09;;;;;;;14.63;8.30;;;;;;;;;;5074406;28;20060;-88
2023/04/21 08:14:35;;;;;;;12.27;8.20;;;;;;;;;;5072591;28;20482;-88
2023/04/21 08:17:00;;;;;;;12.05;8.20;;;;;;;;;;5080954;28;20038;-86
2023/04/21 08:19:26;;;;;;;15.35;8.35;;;;;;;;;;5073093;28;20048;-87
2023/04/21 08:21:51;;;;;;;11.30;7.72;;;;;;;;;;5065262;28;20048;-88
2023/04/21 08:24:17;;;;;;;12.00;8.50;;;;;;;;;;5052479;28;20036;-87
2023/04/21 08:26:43;;;;;;;10.85;7.90;;;;;;;;;;5070748;28;20041;-84
2023/04/21 08:29:09;;;;;;;14.25;8.27;;;;;;;;;;5069703;28;20049;-85
2023/04/21 08:31:35;;;;;;;11.63;7.75;;;;;;;;;;5069933;28;20032;-84
2023/04/21 08:34:00;;;;;;;12.60;7.93;;;;;;;;;;5070854;28;20043;-88
2023/04/21 08:36:26;;;;;;;11.43;6.97;;;;;;;;;;5069351;28;20663;-86
2023/04/21 08:38:52;;;;;;;10.93;7.63;;;;;;;;;;5063335;28;20076;-86
2023/04/21 08:41:18;;;;;;;9.38;6.53;;;;;;;;;;5074157;28;20035;-87
2023/04/21 08:43:44;;;;;;;10.25;7.13;;;;;;;;;;5076906;28;20040;-86
2023/04/21 08:46:11;;;;;;;13.13;7.55;;;;;;;;;;5055920;28;20094;-86
2023/04/21 08:48:37;;;;;;;12.50;8.32;;;;;;;;;;5073118;28;20021;-86
2023/04/21 08:51:05;;;;;;;11.48;7.90;;;;;;;;;;5056296;28;20056;-87
2023/04/21 08:53:31;;;;;;;15.20;8.50;;;;;;;;;;5072524;28;20075;-86
2023/04/21 08:55:56;;;;;;;11.38;8.55;;;;;;;;;;5069593;28;20060;-87
2023/04/21 08:58:22;;;;;;;15.10;9.32;;;;;;;;;;5077905;28;20040;-86
2023/04/21 09:00:48;;;;;;;15.85;9.50;;;;;;;;;;5080935;28;20030;-86
2023/04/21 09:03:21;;;;;;;12.80;8.70;;;;;;;;;;5074504;28;20033;-87
2023/04/21 09:05:56;;;;;;;13.07;9.18;;;;;;;;;;5074515;28;20444;-84
2023/04/21 09:08:24;;;;;;;11.70;8.07;;;;;;;;;;5046429;28;20044;-87
2023/04/21 09:10:51;;;;;;;13.10;8.13;;;;;;;;;;5077006;28;20043;-88
2023/04/21 09:13:17;;;;;;;14.75;7.80;;;;;;;;;;5077901;28;20028;-85
2023/04/21 09:15:51;;;;;;;12.38;7.70;;;;;;;;;;5057467;28;20052;-86
2023/04/21 09:18:19;;;;;;;11.77;7.68;;;;;;;;;;5074613;28;20750;-85
2023/04/21 09:20:46;;;;;;;11.05;7.65;;;;;;;;;;5080284;28;20060;-87
2023/04/21 09:23:12;;;;;;;12.57;7.82;;;;;;;;;;5073397;28;20037;-85
2023/04/21 09:25:39;;;;;;;10.93;8.02;;;;;;;;;;5073553;28;20089;-88
2023/04/21 09:28:13;;;;;;;13.00;9.20;;;;;;;;;;5075292;28;20090;-86
2023/04/21 09:30:39;;;;;;;;;;;;;;;;;;5071074;28;20037;-85
2023/04/21 09:33:04;;;;;;;12.43;8.00;;;;;;;;;;5072341;28;19916;-86
2023/04/21 09:35:38;;;;;;;11.88;8.68;;;;;;;;;;5073819;28;20043;-85
2023/04/21 09:38:09;;;;;;;11.38;7.85;;;;;;;;;;5071809;28;20047;-86
2023/04/21 09:40:35;;;;;;;9.73;7.47;;;;;;;;;;5073295;28;20428;-85
2023/04/21 09:43:00;;;;;;;10.75;8.38;;;;;;;;;;5072348;28;20517;-87
2023/04/21 09:45:27;;;;;;;12.82;8.45;;;;;;;;;;5070977;28;20647;-88
2023/04/21 09:47:59;;;;;;;12.25;8.88;;;;;;;;;;5055419;28;20041;-86
2023/04/21 09:50:25;;;;;;;11.93;8.35;;;;;;;;;;5071198;28;20032;-86
2023/04/21 09:52:52;;;;;;;13.10;8.65;;;;;;;;;;5071714;28;20036;-88
2023/04/21 09:55:21;;;;;;;11.63;8.18;;;;;;;;;;5070180;28;20041;-87
2023/04/21 09:57:48;;;;;;;11.43;7.90;;;;;;;;;;5052103;28;20093;-87
2023/04/21 10:00:17;;;;;;;11.73;8.73;;;;;;;;;;5069125;28;20025;-86
2023/04/21 10:02:47;;;;;;;11.20;7.93;;;;;;;;;;5072492;28;20048;-88
2023/04/21 10:05:13;;;;;;;12.88;8.65;;;;;;;;;;5070521;28;20047;-86
2023/04/21 10:07:38;;;;;;;11.52;8.40;;;;;;;;;;5069210;28;20036;-86
2023/04/21 10:10:07;;;;;;;12.90;8.63;;;;;;;;;;5072167;28;20036;-84
2023/04/21 10:12:33;;;;;;;10.60;8.02;;;;;;;;;;5078935;28;20039;-84
2023/04/21 10:15:03;;;;;;;11.43;7.93;;;;;;;;;;5079918;28;20036;-86
2023/04/21 10:17:35;;;;;;;10.63;7.93;;;;;;;;;;5077182;28;20040;-86
2023/04/21 10:20:05;;;;;;;12.35;8.48;;;;;;;;;;5075384;28;20478;-86
2023/04/21 10:22:32;;;;;;;12.93;7.82;;;;;;;;;;5079213;28;20037;-85
2023/04/21 10:25:07;;;;;;;10.70;8.20;;;;;;;;;;5070078;28;20032;-86
2023/04/21 10:27:35;;;;;;;13.27;8.38;;;;;;;;;;5071979;28;20048;-84
2023/04/21 10:30:16;;;;;;;12.18;7.45;;;;;;;;;;5071880;28;20028;-86
2023/04/21 10:32:42;;;;;;;10.40;7.68;;;;;;;;;;5072396;28;20066;-87
2023/04/21 10:35:09;;;;;;;10.05;7.43;;;;;;;;;;5070634;28;20535;-86
2023/04/21 10:37:34;;;;;;;11.45;7.72;;;;;;;;;;5072807;28;20045;-85
2023/04/21 10:40:00;;;;;;;9.00;6.70;;;;;;;;;;5072178;28;20025;-85
2023/04/21 10:42:28;;;;;;;9.93;6.93;;;;;;;;;;5072575;28;20174;-85
2023/04/21 10:44:56;;;;;;;9.68;6.75;;;;;;;;;;5072247;28;20528;-85
2023/04/21 10:47:30;;;;;;;10.70;6.50;;;;;;;;;;5072323;28;20033;-85
2023/04/21 10:49:57;;;;;;;9.05;6.10;;;;;;;;;;5084557;28;20091;-86
2023/04/21 10:52:31;;;;;;;22.85;5.30;;;;;;;;;;5071081;28;20040;-86
2023/04/21 10:55:06;;;;;;;12.32;6.18;;;;;;;;;;5071150;28;20045;-86
2023/04/21 10:57:33;;;;;;;7.80;5.97;;;;;;;;;;5071744;28;20174;-83
2023/04/21 10:59:59;;;;;;;7.97;6.15;;;;;;;;;;5075741;28;20032;-85
2023/04/21 11:02:25;;;;;;;8.02;6.18;;;;;;;;;;5077243;28;20562;-83
2023/04/21 11:04:53;;;;;;;8.07;5.78;;;;;;;;;;5076538;28;20052;-83
2023/04/21 11:07:23;;;;;;;8.88;5.97;;;;;;;;;;5091381;28;20059;-86
2023/04/21 11:09:56;;;;;;;7.93;5.85;;;;;;;;;;5078661;28;20029;-84
2023/04/21 11:12:26;;;;;;;8.82;6.03;;;;;;;;;;5076719;28;20055;-85
2023/04/21 11:14:52;;;;;;;7.53;5.07;;;;;;;;;;5076517;28;20048;-86
2023/04/21 11:17:19;;;;;;;8.85;5.20;;;;;;;;;;5082592;28;20033;-86
2023/04/21 11:19:50;;;;;;;7.95;5.05;;;;;;;;;;5057188;28;20039;-86
2023/04/21 11:22:17;;;;;;;6.57;4.70;;;;;;;;;;5081280;28;20101;-88
2023/04/21 11:24:47;;;;;;;5.78;4.50;;;;;;;;;;5073724;28;20053;-84
2023/04/21 11:27:16;;;;;;;6.50;3.88;;;;;;;;;;5082215;28;20442;-85
2023/04/21 11:29:45;;;;;;;5.68;3.95;;;;;;;;;;5072776;28;20039;-87
2023/04/21 11:32:11;;;;;;;6.97;4.85;;;;;;;;;;5071527;28;20474;-85
2023/04/21 11:34:37;;;;;;;9.05;4.80;;;;;;;;;;5071471;28;20136;-84
2023/04/21 11:37:03;;;;;;;5.13;4.20;;;;;;;;;;5068926;28;20056;-84
2023/04/21 11:39:28;;;;;;;3.92;2.97;;;;;;;;;;5074526;28;20119;-85
2023/04/21 11:41:55;;;;;;;3.38;2.72;;;;;;;;;;5076479;28;20457;-85
2023/04/21 11:44:41;;;;;;;5.30;3.20;;;;;;;;;;5075213;28;20490;-84
2023/04/21 11:47:23;;;;;;;6.70;3.45;;;;;;;;;;5074290;28;20422;-85
2023/04/21 11:49:54;;;;;;;4.40;3.10;;;;;;;;;;5073567;28;20401;-85
2023/04/21 11:52:25;;;;;;;5.25;2.80;;;;;;;;;;5074698;28;20044;-85
2023/04/21 11:54:58;;;;;;;4.55;2.83;;;;;;;;;;5074489;28;20615;-86
2023/04/21 11:57:26;;;;;;;3.80;2.45;;;;;;;;;;5074639;28;20036;-85
2023/04/21 11:59:52;;;;;;;6.93;3.00;;;;;;;;;;5055842;28;20032;-86
2023/04/21 12:02:23;;;;;;;3.75;2.40;;;;;;;;;;5070592;28;20056;-85
2023/04/21 12:05:02;;;;;;;4.10;2.80;;;;;;;;;;5071282;28;20041;-86
2023/04/21 12:07:29;;;;;;;4.72;2.70;;;;;;;;;;5076410;28;20474;-87
2023/04/21 12:09:55;;;;;;;4.88;2.88;;;;;;;;;;5074290;28;20039;-87
2023/04/21 12:12:23;;;;;;;4.30;2.92;;;;;;;;;;5071517;28;20028;-85
2023/04/21 12:14:49;;;;;;;4.57;2.90;;;;;;;;;;5071003;28;20098;-86
2023/04/21 12:17:15;;;;;;;4.18;2.92;;;;;;;;;;5078023;28;20039;-87
2023/04/21 12:19:41;;;;;;;4.00;2.83;;;;;;;;;;5079986;28;20123;-86
2023/04/21 12:22:09;;;;;;;3.63;2.60;;;;;;;;;;5075506;28;20041;-87
2023/04/21 12:24:35;;;;;;;5.60;3.30;;;;;;;;;;5081748;28;20056;-85
2023/04/21 12:27:02;;;;;;;6.85;2.90;;;;;;;;;;5075913;28;20490;-88
2023/04/21 12:29:28;;;;;;;4.70;3.53;;;;;;;;;;5093655;28;20032;-86
2023/04/21 12:31:53;;;;;;;4.30;3.55;;;;;;;;;;5074434;28;20067;-86
2023/04/21 12:34:19;;;;;;;4.97;3.00;;;;;;;;;;5075828;28;20075;-85
2023/04/21 12:36:44;;;;;;;3.90;2.78;;;;;;;;;;5055547;28;20486;-88
2023/04/21 12:39:10;;;;;;;4.05;2.65;;;;;;;;;;5076597;28;20118;-89
2023/04/21 12:41:36;;;;;;;4.43;3.15;;;;;;;;;;5056587;28;20047;-88
2023/04/21 12:44:01;;;;;;;4.70;2.90;;;;;;;;;;5074368;28;20036;-87
2023/04/21 12:46:27;;;;;;;4.55;2.90;;;;;;;;;;5053383;28;20041;-87
2023/04/21 12:48:52;;;;;;;3.30;2.70;;;;;;;;;;5075729;28;20031;-85
2023/04/21 12:51:21;;;;;;;5.07;3.40;;;;;;;;;;5076070;28;20055;-87
2023/04/21 12:53:46;;;;;;;4.70;3.30;;;;;;;;;;5072345;28;20063;-87
2023/04/21 12:56:12;;;;;;;5.45;3.40;;;;;;;;;;5057532;28;20583;-88
2023/04/21 12:58:37;;;;;;;5.03;3.40;;;;;;;;;;5073968;28;20407;-86
2023/04/21 13:01:04;;;;;;;7.20;3.35;;;;;;;;;;5075509;28;20028;-85
2023/04/21 13:03:29;;;;;;;4.22;3.22;;;;;;;;;;5071397;28;20040;-89
2023/04/21 13:05:56;;;;;;;4.70;3.50;;;;;;;;;;5076262;28;20421;-87
2023/04/21 13:08:21;;;;;;;5.60;3.30;;;;;;;;;;5077115;28;20043;-87
2023/04/21 13:10:47;;;;;;;4.20;3.22;;;;;;;;;;5077715;28;20037;-87
2023/04/21 13:13:12;;;;;;;4.95;3.20;;;;;;;;;;5077878;28;20987;-88
2023/04/21 13:15:38;;;;;;;3.80;2.75;;;;;;;;;;5075938;28;20036;-89
2023/04/21 13:18:03;;;;;;;4.75;3.40;;;;;;;;;;5077526;28;20040;-86
2023/04/21 13:20:30;;;;;;;4.72;3.35;;;;;;;;;;5059101;28;20045;-88
2023/04/21 13:22:55;;;;;;;4.40;3.38;;;;;;;;;;5077697;28;20041;-88
2023/04/21 13:25:21;;;;;;;8.30;3.20;;;;;;;;;;5094038;22;20166;-84
2023/04/21 13:27:46;;;;;;;3.58;2.67;;;;;;;;;;5071603;28;20040;-83
2023/04/21 13:30:13;;;;;;;4.72;2.80;;;;;;;;;;5074567;28;20059;-83
2023/04/21 13:32:39;;;;;;;4.82;2.97;;;;;;;;;;5075180;28;20040;-84
2023/04/21 13:35:08;;;;;;;4.00;2.80;;;;;;;;;;5070107;28;20039;-84
2023/04/21 13:37:37;;;;;;;5.10;2.80;;;;;;;;;;5075097;28;20037;-83
2023/04/21 13:40:04;;;;;;;4.07;2.70;;;;;;;;;;5077209;28;20032;-84
2023/04/21 13:42:30;;;;;;;3.90;2.80;;;;;;;;;;5074941;28;20916;-83
2023/04/21 13:44:57;;;;;;;2.80;2.20;;;;;;;;;;5073451;28;20033;-83
2023/04/21 13:47:22;;;;;;;2.88;2.30;;;;;;;;;;5073398;28;20525;-83
2023/04/21 13:49:50;;;;;;;2.80;2.30;;;;;;;;;;5074852;28;20047;-84
2023/04/21 13:52:16;;;;;;;3.90;2.50;;;;;;;;;;5073390;28;20040;-83
2023/04/21 13:54:41;;;;;;;4.35;3.30;;;;;;;;;;5074563;28;20039;-83
2023/04/21 13:57:07;;;;;;;3.60;2.30;;;;;;;;;;5074494;28;20107;-83
2023/04/21 13:59:33;;;;;;;3.13;2.15;;;;;;;;;;5071560;28;20415;-83
2023/04/21 14:01:58;;;;;;;2.30;1.90;;;;;;;;;;5072437;28;20043;-84
2023/04/21 14:04:24;;;;;;;5.38;2.30;;;;;;;;;;5073279;28;20036;-83
2023/04/21 14:06:50;;;;;;;2.75;2.10;;;;;;;;;;5072614;28;20109;-84
2023/04/21 14:09:15;;;;;;;3.50;2.10;;;;;;;;;;5070526;28;20047;-83
2023/04/21 14:11:41;;;;;;;2.35;1.90;;;;;;;;;;5074587;28;20103;-84
2023/04/21 14:14:06;;;;;;;2.78;2.13;;;;;;;;;;5074160;28;20444;-83
2023/04/21 14:16:32;;;;;;;3.13;2.20;;;;;;;;;;5072437;28;20036;-83
2023/04/21 14:18:58;;;;;;;3.15;2.00;;;;;;;;;;5072800;28;20102;-84
2023/04/21 14:21:23;;;;;;;2.22;1.75;;;;;;;;;;5073703;28;20040;-83
2023/04/21 14:23:49;;;;;;;2.78;2.00;;;;;;;;;;5069686;28;20037;-83
2023/04/21 14:26:14;;;;;;;5.55;2.25;;;;;;;;;;5073570;28;20036;-83
2023/04/21 14:28:40;;;;;;;3.60;2.10;;;;;;;;;;5072754;28;20398;-85
2023/04/21 14:31:05;;;;;;;3.85;2.10;;;;;;;;;;5049572;28;20100;-85